PORT of SKIKDA

Country: Algeria Country: Algeria (DZ)
Latitude / Longitude: 36.88537° / 6.924° Show on Map Show on Map
Local Time:  UTC +1
UN/LOCODE: DZSKI
Expected Arrivals: 7

Vessels in Port


No Records Found

Recent Arrivals & Departures


Vessel Name
Arrival (UTC)
Arrival (LT)
Departure (UTC)
Departure (LT)
Vessel Type: Tugs, Pilots etc  SKIKDA 2014-09-19 12:25:00 2014-09-19 13:25:00 2014-09-21 01:05:00 2014-09-21 02:05:00
Vessel Type: Tankers  FS DIANE 2014-09-21 00:53:00 2014-09-21 01:53:00
Vessel Type: Tankers  ANGI 2014-09-07 10:26:00 2014-09-07 11:26:00 2014-09-21 00:30:00 2014-09-21 01:30:00
Vessel Type: Tankers  GDF SUEZ GLOBAL ENERGY 2014-09-19 13:19:00 2014-09-19 14:19:00 2014-09-20 12:30:00 2014-09-20 13:30:00
Vessel Type: Tankers  ORESTINA 2014-09-19 14:41:00 2014-09-19 15:41:00 2014-09-20 10:12:00 2014-09-20 11:12:00
Vessel Type: Cargo Vessels  YAKOOT 2014-09-19 00:09:00 2014-09-19 01:09:00 2014-09-20 10:09:00 2014-09-20 11:09:00
Vessel Type: Tankers  DL BELLFLOWER 2014-09-18 09:49:00 2014-09-18 10:49:00 2014-09-20 09:26:00 2014-09-20 10:26:00
Vessel Type: Cargo Vessels  SUPERNOVA 2014-09-12 07:23:00 2014-09-12 08:23:00 2014-09-19 23:06:00 2014-09-20 00:06:00
Vessel Type: Cargo Vessels  OUED ZIZ 2014-09-19 18:29:00 2014-09-19 19:29:00
Vessel Type: Tugs, Pilots etc  SKIKDA 2014-09-14 16:50:00 2014-09-14 17:50:00 2014-09-19 12:16:00 2014-09-19 13:16:00

Expected Arrivals


Vessel Name
Scheduled Arrival (UTC)
Scheduled Arrival (LT)
Estimated Arrival (UTC)
Estimated Arrival (LT)
Vessel Type: Tankers  TANJA JACOB 2014-09-21 11:00:00 2014-09-21 12:00:00 2014-09-21 10:10:00 2014-09-21 11:10:00
Vessel Type: Tankers  GASCHEM WESER 2014-09-21 18:00:00 2014-09-21 19:00:00 2014-09-21 17:17:00 2014-09-21 18:17:00
Vessel Type: Cargo Vessels  CLIPPER TALENT 2014-09-22 12:30:00 2014-09-22 13:30:00 2014-09-22 04:05:00 2014-09-22 05:05:00
Vessel Type: Cargo Vessels  CLIPPER CENTURY 2014-09-22 20:00:00 2014-09-22 21:00:00 2014-09-22 16:46:00 2014-09-22 17:46:00
Vessel Type: Cargo Vessels  MARVEL SCAN 2014-09-24 20:00:00 2014-09-24 21:00:00 2014-09-24 14:41:00 2014-09-24 15:41:00
Vessel Type: Cargo Vessels  LORD BYRON 2014-09-27 19:00:00 2014-09-27 20:00:00
Vessel Type: Cargo Vessels  HC PAULINA 2014-10-02 08:00:00 2014-10-02 09:00:00 2014-10-05 20:06:00 2014-10-05 21:06:00

Wind Forecast


    
Time (UTC)
Speed
Direction
Temperature
2014-09-21 09:00:00 3 knots 21° 27°C
2014-09-21 12:00:00 8 knots 65° 27°C
2014-09-21 15:00:00 12 knots 69° 28°C
2014-09-21 18:00:00 10 knots 56° 27°C
2014-09-21 21:00:00 10 knots 337° 26°C
2014-09-22 00:00:00 1 knots 228° 25°C
2014-09-22 03:00:00 3 knots 176° 25°C
2014-09-22 06:00:00 4 knots 342° 26°C
2014-09-22 09:00:00 6 knots 311° 26°C
2014-09-22 12:00:00 4 knots 325° 26°C
2014-09-22 15:00:00 10 knots 340° 25°C
2014-09-22 18:00:00 12 knots 306° 24°C
2014-09-22 21:00:00 5 knots 260° 24°C
2014-09-23 00:00:00 11 knots 311° 24°C
2014-09-23 03:00:00 15 knots 299° 24°C
2014-09-23 06:00:00 12 knots 304° 24°C
2014-09-23 09:00:00 11 knots 307° 25°C